sensor_id;sensor_type;location;lat;lon;timestamp;temperature;humidity
5134;DHT22;2585;48.696;10.066;2022-08-24T00:00:28;12.20;62.70
5134;DHT22;2585;48.696;10.066;2022-08-24T00:02:55;12.10;62.30
5134;DHT22;2585;48.696;10.066;2022-08-24T00:05:22;12.20;61.90
5134;DHT22;2585;48.696;10.066;2022-08-24T00:07:49;12.10;61.10
5134;DHT22;2585;48.696;10.066;2022-08-24T00:10:18;12.00;57.60
5134;DHT22;2585;48.696;10.066;2022-08-24T00:12:46;12.00;60.30
5134;DHT22;2585;48.696;10.066;2022-08-24T00:15:14;11.90;63.70
5134;DHT22;2585;48.696;10.066;2022-08-24T00:17:42;11.90;65.20
5134;DHT22;2585;48.696;10.066;2022-08-24T00:20:11;11.70;67.70
5134;DHT22;2585;48.696;10.066;2022-08-24T00:22:39;11.80;70.30
5134;DHT22;2585;48.696;10.066;2022-08-24T00:25:09;11.80;70.20
5134;DHT22;2585;48.696;10.066;2022-08-24T00:27:37;11.80;73.10
5134;DHT22;2585;48.696;10.066;2022-08-24T00:30:06;11.80;72.70
5134;DHT22;2585;48.696;10.066;2022-08-24T00:32:33;11.70;71.20
5134;DHT22;2585;48.696;10.066;2022-08-24T00:35:03;11.70;72.70
5134;DHT22;2585;48.696;10.066;2022-08-24T00:37:30;11.80;69.60
5134;DHT22;2585;48.696;10.066;2022-08-24T00:39:57;11.60;67.20
5134;DHT22;2585;48.696;10.066;2022-08-24T00:42:25;11.60;72.30
5134;DHT22;2585;48.696;10.066;2022-08-24T00:44:52;11.60;75.90
5134;DHT22;2585;48.696;10.066;2022-08-24T00:47:28;11.60;75.90
5134;DHT22;2585;48.696;10.066;2022-08-24T00:50:03;11.50;76.30
5134;DHT22;2585;48.696;10.066;2022-08-24T00:52:41;11.40;79.00
5134;DHT22;2585;48.696;10.066;2022-08-24T00:55:13;11.40;79.40
5134;DHT22;2585;48.696;10.066;2022-08-24T00:57:43;11.40;80.50
5134;DHT22;2585;48.696;10.066;2022-08-24T01:00:14;11.30;82.20
5134;DHT22;2585;48.696;10.066;2022-08-24T01:02:44;11.30;82.80
5134;DHT22;2585;48.696;10.066;2022-08-24T01:05:14;11.30;81.90
5134;DHT22;2585;48.696;10.066;2022-08-24T01:07:42;11.30;81.10
5134;DHT22;2585;48.696;10.066;2022-08-24T01:10:12;11.20;82.90
5134;DHT22;2585;48.696;10.066;2022-08-24T01:12:42;11.20;85.30
5134;DHT22;2585;48.696;10.066;2022-08-24T01:15:26;11.20;85.90
5134;DHT22;2585;48.696;10.066;2022-08-24T01:17:53;11.20;86.30
5134;DHT22;2585;48.696;10.066;2022-08-24T01:20:39;11.20;85.60
5134;DHT22;2585;48.696;10.066;2022-08-24T01:23:33;11.10;84.60
5134;DHT22;2585;48.696;10.066;2022-08-24T01:26:03;11.10;85.00
5134;DHT22;2585;48.696;10.066;2022-08-24T01:28:32;11.10;86.60
5134;DHT22;2585;48.696;10.066;2022-08-24T01:31:02;11.10;86.50
5134;DHT22;2585;48.696;10.066;2022-08-24T01:33:31;11.20;85.50
5134;DHT22;2585;48.696;10.066;2022-08-24T01:36:14;11.10;83.90
5134;DHT22;2585;48.696;10.066;2022-08-24T01:38:44;11.10;81.30
5134;DHT22;2585;48.696;10.066;2022-08-24T01:41:12;11.10;79.20
5134;DHT22;2585;48.696;10.066;2022-08-24T01:43:39;11.10;79.30
5134;DHT22;2585;48.696;10.066;2022-08-24T01:46:07;11.00;79.20
5134;DHT22;2585;48.696;10.066;2022-08-24T01:48:34;10.90;81.90
5134;DHT22;2585;48.696;10.066;2022-08-24T01:51:00;10.90;84.90
5134;DHT22;2585;48.696;10.066;2022-08-24T01:53:28;10.90;87.20
5134;DHT22;2585;48.696;10.066;2022-08-24T01:55:54;10.80;87.50
5134;DHT22;2585;48.696;10.066;2022-08-24T01:58:21;10.80;88.40
5134;DHT22;2585;48.696;10.066;2022-08-24T02:00:48;10.80;88.00
5134;DHT22;2585;48.696;10.066;2022-08-24T02:03:15;10.80;88.10
5134;DHT22;2585;48.696;10.066;2022-08-24T02:05:42;10.70;87.40
5134;DHT22;2585;48.696;10.066;2022-08-24T02:08:09;10.80;87.40
5134;DHT22;2585;48.696;10.066;2022-08-24T02:10:36;10.80;87.00
5134;DHT22;2585;48.696;10.066;2022-08-24T02:13:03;10.70;86.40
5134;DHT22;2585;48.696;10.066;2022-08-24T02:15:33;10.60;87.20
5134;DHT22;2585;48.696;10.066;2022-08-24T02:18:03;10.60;88.40
5134;DHT22;2585;48.696;10.066;2022-08-24T02:20:30;10.60;89.20
5134;DHT22;2585;48.696;10.066;2022-08-24T02:22:57;10.50;89.30
5134;DHT22;2585;48.696;10.066;2022-08-24T02:25:24;10.60;90.00
5134;DHT22;2585;48.696;10.066;2022-08-24T02:27:51;10.60;89.90
5134;DHT22;2585;48.696;10.066;2022-08-24T02:30:18;10.60;89.70
5134;DHT22;2585;48.696;10.066;2022-08-24T02:32:45;10.60;89.30
5134;DHT22;2585;48.696;10.066;2022-08-24T02:35:12;10.50;89.40
5134;DHT22;2585;48.696;10.066;2022-08-24T02:37:40;10.40;89.40
5134;DHT22;2585;48.696;10.066;2022-08-24T02:40:10;10.40;89.50
5134;DHT22;2585;48.696;10.066;2022-08-24T02:42:38;10.40;89.60
5134;DHT22;2585;48.696;10.066;2022-08-24T02:45:05;10.40;89.90
5134;DHT22;2585;48.696;10.066;2022-08-24T02:47:33;10.40;89.90
5134;DHT22;2585;48.696;10.066;2022-08-24T02:50:07;10.40;90.10
5134;DHT22;2585;48.696;10.066;2022-08-24T02:52:36;10.40;90.10
5134;DHT22;2585;48.696;10.066;2022-08-24T02:55:04;10.30;90.00
5134;DHT22;2585;48.696;10.066;2022-08-24T02:57:31;10.30;90.10
5134;DHT22;2585;48.696;10.066;2022-08-24T02:59:58;10.30;90.10
5134;DHT22;2585;48.696;10.066;2022-08-24T03:02:25;10.20;90.00
5134;DHT22;2585;48.696;10.066;2022-08-24T03:04:53;10.10;90.10
5134;DHT22;2585;48.696;10.066;2022-08-24T03:07:19;10.20;90.40
5134;DHT22;2585;48.696;10.066;2022-08-24T03:09:46;10.20;90.40
5134;DHT22;2585;48.696;10.066;2022-08-24T03:12:14;10.10;90.30
5134;DHT22;2585;48.696;10.066;2022-08-24T03:14:41;10.10;90.30
5134;DHT22;2585;48.696;10.066;2022-08-24T03:17:07;10.20;90.40
5134;DHT22;2585;48.696;10.066;2022-08-24T03:19:35;10.20;90.40
5134;DHT22;2585;48.696;10.066;2022-08-24T03:22:02;10.10;90.30
5134;DHT22;2585;48.696;10.066;2022-08-24T03:24:29;10.10;90.40
5134;DHT22;2585;48.696;10.066;2022-08-24T03:26:55;10.10;90.50
5134;DHT22;2585;48.696;10.066;2022-08-24T03:29:25;10.00;90.60
5134;DHT22;2585;48.696;10.066;2022-08-24T03:31:52;10.00;90.50
5134;DHT22;2585;48.696;10.066;2022-08-24T03:34:18;9.90;90.90
5134;DHT22;2585;48.696;10.066;2022-08-24T03:36:46;9.90;91.00
5134;DHT22;2585;48.696;10.066;2022-08-24T03:39:14;9.90;91.10
5134;DHT22;2585;48.696;10.066;2022-08-24T03:41:41;9.90;91.10
5134;DHT22;2585;48.696;10.066;2022-08-24T03:44:08;9.90;91.00
5134;DHT22;2585;48.696;10.066;2022-08-24T03:46:36;9.80;90.90
5134;DHT22;2585;48.696;10.066;2022-08-24T03:49:06;9.80;90.90
5134;DHT22;2585;48.696;10.066;2022-08-24T03:51:35;9.80;91.00
5134;DHT22;2585;48.696;10.066;2022-08-24T03:54:05;9.80;91.00
5134;DHT22;2585;48.696;10.066;2022-08-24T03:56:32;9.80;90.90
5134;DHT22;2585;48.696;10.066;2022-08-24T03:58:59;9.70;90.90
5134;DHT22;2585;48.696;10.066;2022-08-24T04:01:26;9.70;90.90
5134;DHT22;2585;48.696;10.066;2022-08-24T04:03:53;9.80;91.00
5134;DHT22;2585;48.696;10.066;2022-08-24T04:06:21;9.70;91.10
5134;DHT22;2585;48.696;10.066;2022-08-24T04:08:48;9.70;91.10
5134;DHT22;2585;48.696;10.066;2022-08-24T04:11:17;9.70;91.10
5134;DHT22;2585;48.696;10.066;2022-08-24T04:13:45;9.70;91.10
5134;DHT22;2585;48.696;10.066;2022-08-24T04:16:16;9.70;91.10
5134;DHT22;2585;48.696;10.066;2022-08-24T04:18:45;9.70;91.10
5134;DHT22;2585;48.696;10.066;2022-08-24T04:21:20;9.70;91.10
5134;DHT22;2585;48.696;10.066;2022-08-24T04:23:48;9.60;91.00
5134;DHT22;2585;48.696;10.066;2022-08-24T04:26:17;9.60;91.10
5134;DHT22;2585;48.696;10.066;2022-08-24T04:29:07;9.50;91.20
5134;DHT22;2585;48.696;10.066;2022-08-24T04:31:38;9.50;91.40
5134;DHT22;2585;48.696;10.066;2022-08-24T04:34:06;9.60;91.40
5134;DHT22;2585;48.696;10.066;2022-08-24T04:36:34;9.50;91.40
5134;DHT22;2585;48.696;10.066;2022-08-24T04:39:02;9.50;91.40
5134;DHT22;2585;48.696;10.066;2022-08-24T04:41:29;9.60;91.50
5134;DHT22;2585;48.696;10.066;2022-08-24T04:43:58;9.60;91.50
5134;DHT22;2585;48.696;10.066;2022-08-24T04:46:26;9.60;91.40
5134;DHT22;2585;48.696;10.066;2022-08-24T04:48:54;9.60;91.40
5134;DHT22;2585;48.696;10.066;2022-08-24T04:51:21;9.60;91.40
5134;DHT22;2585;48.696;10.066;2022-08-24T04:53:48;9.60;91.40
5134;DHT22;2585;48.696;10.066;2022-08-24T04:56:18;9.60;91.40
5134;DHT22;2585;48.696;10.066;2022-08-24T04:58:46;9.60;91.40
5134;DHT22;2585;48.696;10.066;2022-08-24T05:01:16;9.70;91.40
5134;DHT22;2585;48.696;10.066;2022-08-24T05:03:46;9.70;91.40
5134;DHT22;2585;48.696;10.066;2022-08-24T05:06:17;9.60;91.40
5134;DHT22;2585;48.696;10.066;2022-08-24T05:08:44;9.60;91.50
5134;DHT22;2585;48.696;10.066;2022-08-24T05:11:13;9.70;91.60
5134;DHT22;2585;48.696;10.066;2022-08-24T05:13:40;9.70;91.60
5134;DHT22;2585;48.696;10.066;2022-08-24T05:16:16;9.70;91.60
5134;DHT22;2585;48.696;10.066;2022-08-24T05:18:44;9.80;91.70
5134;DHT22;2585;48.696;10.066;2022-08-24T05:21:14;9.80;91.70
5134;DHT22;2585;48.696;10.066;2022-08-24T05:23:41;9.90;91.70
5134;DHT22;2585;48.696;10.066;2022-08-24T05:26:17;10.00;91.50
5134;DHT22;2585;48.696;10.066;2022-08-24T05:28:45;10.00;91.50
5134;DHT22;2585;48.696;10.066;2022-08-24T05:31:16;10.10;91.50
5134;DHT22;2585;48.696;10.066;2022-08-24T05:33:44;10.20;91.60
5134;DHT22;2585;48.696;10.066;2022-08-24T05:36:33;10.20;91.60
5134;DHT22;2585;48.696;10.066;2022-08-24T05:39:02;10.30;91.60
5134;DHT22;2585;48.696;10.066;2022-08-24T05:41:36;10.30;91.50
5134;DHT22;2585;48.696;10.066;2022-08-24T05:44:05;10.30;91.50
5134;DHT22;2585;48.696;10.066;2022-08-24T05:46:32;10.40;91.50
5134;DHT22;2585;48.696;10.066;2022-08-24T05:48:59;10.40;91.50
5134;DHT22;2585;48.696;10.066;2022-08-24T05:51:26;10.50;91.60
5134;DHT22;2585;48.696;10.066;2022-08-24T05:53:53;10.60;91.60
5134;DHT22;2585;48.696;10.066;2022-08-24T05:56:20;10.70;91.60
5134;DHT22;2585;48.696;10.066;2022-08-24T05:58:47;10.70;91.60
5134;DHT22;2585;48.696;10.066;2022-08-24T06:01:17;10.90;91.70
5134;DHT22;2585;48.696;10.066;2022-08-24T06:03:44;11.00;91.70
5134;DHT22;2585;48.696;10.066;2022-08-24T06:06:12;11.00;91.60
5134;DHT22;2585;48.696;10.066;2022-08-24T06:08:41;11.10;91.60
5134;DHT22;2585;48.696;10.066;2022-08-24T06:11:09;11.30;91.60
5134;DHT22;2585;48.696;10.066;2022-08-24T06:13:36;11.40;91.50
5134;DHT22;2585;48.696;10.066;2022-08-24T06:16:12;11.40;91.40
5134;DHT22;2585;48.696;10.066;2022-08-24T06:18:49;11.50;91.30
5134;DHT22;2585;48.696;10.066;2022-08-24T06:21:19;11.60;91.40
5134;DHT22;2585;48.696;10.066;2022-08-24T06:23:47;11.70;91.60
5134;DHT22;2585;48.696;10.066;2022-08-24T06:26:13;11.90;91.60
5134;DHT22;2585;48.696;10.066;2022-08-24T06:28:59;12.20;91.20
5134;DHT22;2585;48.696;10.066;2022-08-24T06:31:26;12.50;90.30
5134;DHT22;2585;48.696;10.066;2022-08-24T06:33:54;12.80;88.50
5134;DHT22;2585;48.696;10.066;2022-08-24T06:36:21;13.10;84.00
5134;DHT22;2585;48.696;10.066;2022-08-24T06:38:48;13.20;84.40
5134;DHT22;2585;48.696;10.066;2022-08-24T06:41:15;13.60;78.30
5134;DHT22;2585;48.696;10.066;2022-08-24T06:43:42;13.90;63.20
5134;DHT22;2585;48.696;10.066;2022-08-24T06:46:10;14.30;51.50
5134;DHT22;2585;48.696;10.066;2022-08-24T06:48:37;14.50;28.60
5134;DHT22;2585;48.696;10.066;2022-08-24T06:51:09;14.90;17.10
5134;DHT22;2585;48.696;10.066;2022-08-24T06:53:37;15.20;11.80
5134;DHT22;2585;48.696;10.066;2022-08-24T06:56:04;15.50;5.40
5134;DHT22;2585;48.696;10.066;2022-08-24T06:58:31;15.70;3.20
5134;DHT22;2585;48.696;10.066;2022-08-24T07:01:23;16.20;1.00
5134;DHT22;2585;48.696;10.066;2022-08-24T07:03:51;16.50;1.00
5134;DHT22;2585;48.696;10.066;2022-08-24T07:06:19;16.80;1.00
5134;DHT22;2585;48.696;10.066;2022-08-24T07:08:46;17.10;1.00
5134;DHT22;2585;48.696;10.066;2022-08-24T07:11:15;17.30;1.00
5134;DHT22;2585;48.696;10.066;2022-08-24T07:13:44;17.50;1.00
5134;DHT22;2585;48.696;10.066;2022-08-24T07:16:21;17.80;1.00
5134;DHT22;2585;48.696;10.066;2022-08-24T07:18:48;17.80;1.00
5134;DHT22;2585;48.696;10.066;2022-08-24T07:21:17;18.00;1.00
5134;DHT22;2585;48.696;10.066;2022-08-24T07:23:46;18.50;1.00
5134;DHT22;2585;48.696;10.066;2022-08-24T07:26:16;18.50;1.00
5134;DHT22;2585;48.696;10.066;2022-08-24T07:29:00;18.70;1.00
5134;DHT22;2585;48.696;10.066;2022-08-24T07:31:35;18.80;1.00
5134;DHT22;2585;48.696;10.066;2022-08-24T07:34:04;19.00;1.00
5134;DHT22;2585;48.696;10.066;2022-08-24T07:36:32;19.60;1.00
5134;DHT22;2585;48.696;10.066;2022-08-24T07:39:00;20.10;1.00
5134;DHT22;2585;48.696;10.066;2022-08-24T07:41:26;20.30;1.00
5134;DHT22;2585;48.696;10.066;2022-08-24T07:44:13;20.90;1.00
5134;DHT22;2585;48.696;10.066;2022-08-24T07:46:41;20.80;1.00
5134;DHT22;2585;48.696;10.066;2022-08-24T07:49:09;21.10;1.00
5134;DHT22;2585;48.696;10.066;2022-08-24T07:51:57;21.20;1.00
5134;DHT22;2585;48.696;10.066;2022-08-24T07:54:24;21.10;1.00
5134;DHT22;2585;48.696;10.066;2022-08-24T07:56:54;21.30;1.00
5134;DHT22;2585;48.696;10.066;2022-08-24T07:59:21;21.40;1.00
5134;DHT22;2585;48.696;10.066;2022-08-24T08:01:48;22.00;1.00
5134;DHT22;2585;48.696;10.066;2022-08-24T08:04:16;22.50;1.00
5134;DHT22;2585;48.696;10.066;2022-08-24T08:06:47;22.40;1.00
5134;DHT22;2585;48.696;10.066;2022-08-24T08:09:14;22.70;1.00
5134;DHT22;2585;48.696;10.066;2022-08-24T08:11:41;22.70;1.00
5134;DHT22;2585;48.696;10.066;2022-08-24T08:14:08;22.80;1.00
5134;DHT22;2585;48.696;10.066;2022-08-24T08:16:35;22.60;1.00
5134;DHT22;2585;48.696;10.066;2022-08-24T08:19:04;22.80;1.00
5134;DHT22;2585;48.696;10.066;2022-08-24T08:21:47;23.00;1.00
5134;DHT22;2585;48.696;10.066;2022-08-24T08:24:33;22.80;1.00
5134;DHT22;2585;48.696;10.066;2022-08-24T08:27:00;22.80;1.00
5134;DHT22;2585;48.696;10.066;2022-08-24T08:29:30;23.00;1.00
5134;DHT22;2585;48.696;10.066;2022-08-24T08:31:57;23.30;1.00
5134;DHT22;2585;48.696;10.066;2022-08-24T08:34:25;23.40;1.00
5134;DHT22;2585;48.696;10.066;2022-08-24T08:36:52;23.50;1.00
5134;DHT22;2585;48.696;10.066;2022-08-24T08:39:20;23.60;1.00
5134;DHT22;2585;48.696;10.066;2022-08-24T08:42:28;23.70;1.00
5134;DHT22;2585;48.696;10.066;2022-08-24T08:59:16;25.30;1.00
5134;DHT22;2585;48.696;10.066;2022-08-24T09:13:21;25.80;1.00
5134;DHT22;2585;48.696;10.066;2022-08-24T09:16:15;25.40;1.00
5134;DHT22;2585;48.696;10.066;2022-08-24T09:19:02;25.20;1.00
5134;DHT22;2585;48.696;10.066;2022-08-24T09:21:52;25.00;1.00
5134;DHT22;2585;48.696;10.066;2022-08-24T09:30:11;26.20;1.00
5134;DHT22;2585;48.696;10.066;2022-08-24T09:33:07;26.80;1.00
5134;DHT22;2585;48.696;10.066;2022-08-24T10:00:46;28.10;1.00
5134;DHT22;2585;48.696;10.066;2022-08-24T10:14:40;28.60;1.00
5134;DHT22;2585;48.696;10.066;2022-08-24T10:22:59;28.90;1.00
5134;DHT22;2585;48.696;10.066;2022-08-24T10:25:54;28.80;1.00
5134;DHT22;2585;48.696;10.066;2022-08-24T10:31:55;29.20;1.00
5134;DHT22;2585;48.696;10.066;2022-08-24T10:34:48;28.80;1.00
5134;DHT22;2585;48.696;10.066;2022-08-24T10:54:49;29.30;1.00
5134;DHT22;2585;48.696;10.066;2022-08-24T10:57:38;29.10;1.00
5134;DHT22;2585;48.696;10.066;2022-08-24T11:00:09;29.20;1.00
5134;DHT22;2585;48.696;10.066;2022-08-24T11:02:49;29.70;1.00
5134;DHT22;2585;48.696;10.066;2022-08-24T11:05:37;30.30;1.00
5134;DHT22;2585;48.696;10.066;2022-08-24T11:08:06;30.40;1.00
5134;DHT22;2585;48.696;10.066;2022-08-24T11:10:36;30.70;1.00
5134;DHT22;2585;48.696;10.066;2022-08-24T11:13:21;30.50;1.00
5134;DHT22;2585;48.696;10.066;2022-08-24T11:15:51;30.40;1.00
5134;DHT22;2585;48.696;10.066;2022-08-24T11:18:19;30.20;1.00
5134;DHT22;2585;48.696;10.066;2022-08-24T11:20:48;30.30;1.00
5134;DHT22;2585;48.696;10.066;2022-08-24T11:26:00;31.00;1.00
5134;DHT22;2585;48.696;10.066;2022-08-24T11:28:30;30.60;1.00
5134;DHT22;2585;48.696;10.066;2022-08-24T11:30:58;31.00;1.00
5134;DHT22;2585;48.696;10.066;2022-08-24T11:33:43;31.00;1.00
5134;DHT22;2585;48.696;10.066;2022-08-24T11:36:17;31.10;1.00
5134;DHT22;2585;48.696;10.066;2022-08-24T11:38:47;30.90;1.00
5134;DHT22;2585;48.696;10.066;2022-08-24T11:41:29;30.40;1.00
5134;DHT22;2585;48.696;10.066;2022-08-24T11:44:00;30.40;1.00
5134;DHT22;2585;48.696;10.066;2022-08-24T11:46:52;30.40;1.00
5134;DHT22;2585;48.696;10.066;2022-08-24T11:58:05;29.50;1.00
5134;DHT22;2585;48.696;10.066;2022-08-24T12:03:33;29.10;1.00
5134;DHT22;2585;48.696;10.066;2022-08-24T12:11:47;30.40;1.00
5134;DHT22;2585;48.696;10.066;2022-08-24T12:19:32;31.20;1.00
5134;DHT22;2585;48.696;10.066;2022-08-24T12:22:04;30.90;1.00
5134;DHT22;2585;48.696;10.066;2022-08-24T12:24:42;31.10;1.00
5134;DHT22;2585;48.696;10.066;2022-08-24T12:27:37;31.70;1.00
5134;DHT22;2585;48.696;10.066;2022-08-24T12:30:07;32.30;1.00
5134;DHT22;2585;48.696;10.066;2022-08-24T12:37:39;31.80;1.00
5134;DHT22;2585;48.696;10.066;2022-08-24T12:40:33;31.50;1.00
5134;DHT22;2585;48.696;10.066;2022-08-24T12:45:50;30.80;1.00
5134;DHT22;2585;48.696;10.066;2022-08-24T13:01:55;30.30;1.00
5134;DHT22;2585;48.696;10.066;2022-08-24T13:07:11;31.60;1.00
5134;DHT22;2585;48.696;10.066;2022-08-24T13:31:04;31.10;1.00
5134;DHT22;2585;48.696;10.066;2022-08-24T13:59:10;31.20;1.00
5134;DHT22;2585;48.696;10.066;2022-08-24T14:02:19;31.20;1.00
5134;DHT22;2585;48.696;10.066;2022-08-24T14:07:31;30.80;1.00
5134;DHT22;2585;48.696;10.066;2022-08-24T14:18:44;31.40;1.00
5134;DHT22;2585;48.696;10.066;2022-08-24T14:21:17;30.50;1.00
5134;DHT22;2585;48.696;10.066;2022-08-24T14:24:02;30.80;1.00
5134;DHT22;2585;48.696;10.066;2022-08-24T14:34:38;28.80;1.00
5134;DHT22;2585;48.696;10.066;2022-08-24T14:39:55;29.00;1.00
5134;DHT22;2585;48.696;10.066;2022-08-24T14:45:43;29.00;1.00
5134;DHT22;2585;48.696;10.066;2022-08-24T14:51:43;28.70;1.00
5134;DHT22;2585;48.696;10.066;2022-08-24T15:00:09;27.40;1.00
5134;DHT22;2585;48.696;10.066;2022-08-24T15:02:50;27.70;1.00
5134;DHT22;2585;48.696;10.066;2022-08-24T15:08:02;27.60;1.00
5134;DHT22;2585;48.696;10.066;2022-08-24T15:13:36;26.90;1.00
5134;DHT22;2585;48.696;10.066;2022-08-24T15:19:02;26.80;1.00
5134;DHT22;2585;48.696;10.066;2022-08-24T15:27:44;26.90;1.00
5134;DHT22;2585;48.696;10.066;2022-08-24T15:30:31;26.80;1.00
5134;DHT22;2585;48.696;10.066;2022-08-24T15:33:19;26.40;1.00
5134;DHT22;2585;48.696;10.066;2022-08-24T15:36:02;26.40;1.00
5134;DHT22;2585;48.696;10.066;2022-08-24T15:41:19;26.50;1.00
5134;DHT22;2585;48.696;10.066;2022-08-24T15:46:28;26.40;1.00
5134;DHT22;2585;48.696;10.066;2022-08-24T15:49:05;26.30;1.00
5134;DHT22;2585;48.696;10.066;2022-08-24T15:51:45;26.20;1.00
5134;DHT22;2585;48.696;10.066;2022-08-24T15:54:27;26.00;1.00
5134;DHT22;2585;48.696;10.066;2022-08-24T15:59:46;25.60;1.00
5134;DHT22;2585;48.696;10.066;2022-08-24T16:05:19;25.50;1.00
5134;DHT22;2585;48.696;10.066;2022-08-24T16:24:11;25.10;1.00
5134;DHT22;2585;48.696;10.066;2022-08-24T16:37:35;25.00;1.00
5134;DHT22;2585;48.696;10.066;2022-08-24T16:40:03;24.90;1.00
5134;DHT22;2585;48.696;10.066;2022-08-24T16:42:31;24.90;1.00
5134;DHT22;2585;48.696;10.066;2022-08-24T16:44:59;24.80;1.00
5134;DHT22;2585;48.696;10.066;2022-08-24T16:47:27;24.80;1.00
5134;DHT22;2585;48.696;10.066;2022-08-24T16:49:54;24.70;1.00
5134;DHT22;2585;48.696;10.066;2022-08-24T16:52:21;24.70;1.00
5134;DHT22;2585;48.696;10.066;2022-08-24T16:54:48;24.60;1.00
5134;DHT22;2585;48.696;10.066;2022-08-24T16:57:21;24.60;1.00
5134;DHT22;2585;48.696;10.066;2022-08-24T16:59:50;24.60;1.00
5134;DHT22;2585;48.696;10.066;2022-08-24T17:02:18;24.50;1.00
5134;DHT22;2585;48.696;10.066;2022-08-24T17:04:46;24.40;1.00
5134;DHT22;2585;48.696;10.066;2022-08-24T17:07:16;24.50;1.00
5134;DHT22;2585;48.696;10.066;2022-08-24T17:09:45;24.40;1.00
5134;DHT22;2585;48.696;10.066;2022-08-24T17:12:12;24.40;1.00
5134;DHT22;2585;48.696;10.066;2022-08-24T17:14:40;24.40;1.00
5134;DHT22;2585;48.696;10.066;2022-08-24T17:17:09;24.40;1.00
5134;DHT22;2585;48.696;10.066;2022-08-24T17:19:38;24.40;1.00
5134;DHT22;2585;48.696;10.066;2022-08-24T17:22:09;24.20;1.00
5134;DHT22;2585;48.696;10.066;2022-08-24T17:24:42;24.20;1.00
5134;DHT22;2585;48.696;10.066;2022-08-24T17:27:09;24.10;1.00
5134;DHT22;2585;48.696;10.066;2022-08-24T17:29:36;24.00;1.00
5134;DHT22;2585;48.696;10.066;2022-08-24T17:32:03;24.00;1.00
5134;DHT22;2585;48.696;10.066;2022-08-24T17:34:31;23.90;1.00
5134;DHT22;2585;48.696;10.066;2022-08-24T17:36:58;23.70;1.00
5134;DHT22;2585;48.696;10.066;2022-08-24T17:39:25;23.60;1.00
5134;DHT22;2585;48.696;10.066;2022-08-24T17:41:54;23.50;1.00
5134;DHT22;2585;48.696;10.066;2022-08-24T17:44:25;23.30;1.00
5134;DHT22;2585;48.696;10.066;2022-08-24T17:46:55;23.30;1.00
5134;DHT22;2585;48.696;10.066;2022-08-24T17:49:24;23.20;1.00
5134;DHT22;2585;48.696;10.066;2022-08-24T17:51:52;23.10;1.00
5134;DHT22;2585;48.696;10.066;2022-08-24T17:54:21;23.10;1.00
5134;DHT22;2585;48.696;10.066;2022-08-24T17:56:48;23.00;1.00
5134;DHT22;2585;48.696;10.066;2022-08-24T17:59:24;22.90;1.00
5134;DHT22;2585;48.696;10.066;2022-08-24T18:01:56;22.80;1.00
5134;DHT22;2585;48.696;10.066;2022-08-24T18:04:25;22.70;1.00
5134;DHT22;2585;48.696;10.066;2022-08-24T18:06:55;22.60;1.00
5134;DHT22;2585;48.696;10.066;2022-08-24T18:09:30;22.50;1.00
5134;DHT22;2585;48.696;10.066;2022-08-24T18:12:03;22.30;1.00
5134;DHT22;2585;48.696;10.066;2022-08-24T18:14:31;22.20;1.00
5134;DHT22;2585;48.696;10.066;2022-08-24T18:17:03;22.20;1.00
5134;DHT22;2585;48.696;10.066;2022-08-24T18:19:32;22.00;1.00
5134;DHT22;2585;48.696;10.066;2022-08-24T18:22:00;21.90;1.00
5134;DHT22;2585;48.696;10.066;2022-08-24T18:24:27;21.80;1.00
5134;DHT22;2585;48.696;10.066;2022-08-24T18:26:59;21.60;1.00
5134;DHT22;2585;48.696;10.066;2022-08-24T18:29:32;21.50;1.00
5134;DHT22;2585;48.696;10.066;2022-08-24T18:31:59;21.30;1.00
5134;DHT22;2585;48.696;10.066;2022-08-24T18:34:26;21.20;1.00
5134;DHT22;2585;48.696;10.066;2022-08-24T18:36:54;21.10;1.00
5134;DHT22;2585;48.696;10.066;2022-08-24T18:39:21;21.00;1.00
5134;DHT22;2585;48.696;10.066;2022-08-24T18:41:49;20.90;1.00
5134;DHT22;2585;48.696;10.066;2022-08-24T18:44:18;20.80;1.00
5134;DHT22;2585;48.696;10.066;2022-08-24T18:46:46;20.70;1.00
5134;DHT22;2585;48.696;10.066;2022-08-24T18:49:15;20.60;1.00
5134;DHT22;2585;48.696;10.066;2022-08-24T18:51:43;20.50;1.00
5134;DHT22;2585;48.696;10.066;2022-08-24T18:54:18;20.40;1.00
5134;DHT22;2585;48.696;10.066;2022-08-24T18:56:46;20.30;1.00
5134;DHT22;2585;48.696;10.066;2022-08-24T18:59:14;20.10;1.00
5134;DHT22;2585;48.696;10.066;2022-08-24T19:01:42;20.10;1.00
5134;DHT22;2585;48.696;10.066;2022-08-24T19:04:28;19.90;1.00
5134;DHT22;2585;48.696;10.066;2022-08-24T19:06:59;19.70;1.00
5134;DHT22;2585;48.696;10.066;2022-08-24T19:09:26;19.60;1.00
5134;DHT22;2585;48.696;10.066;2022-08-24T19:11:59;19.50;1.00
5134;DHT22;2585;48.696;10.066;2022-08-24T19:14:26;19.40;1.00
5134;DHT22;2585;48.696;10.066;2022-08-24T19:16:53;19.30;1.00
5134;DHT22;2585;48.696;10.066;2022-08-24T19:19:21;19.30;1.00
5134;DHT22;2585;48.696;10.066;2022-08-24T19:21:48;19.20;1.00
5134;DHT22;2585;48.696;10.066;2022-08-24T19:24:18;19.20;1.00
5134;DHT22;2585;48.696;10.066;2022-08-24T19:26:46;19.10;1.00
5134;DHT22;2585;48.696;10.066;2022-08-24T19:29:14;19.00;1.00
5134;DHT22;2585;48.696;10.066;2022-08-24T19:32:01;19.00;1.00
5134;DHT22;2585;48.696;10.066;2022-08-24T19:34:30;18.90;1.00
5134;DHT22;2585;48.696;10.066;2022-08-24T19:36:57;18.80;1.00
5134;DHT22;2585;48.696;10.066;2022-08-24T19:39:26;18.70;1.00
5134;DHT22;2585;48.696;10.066;2022-08-24T19:41:57;18.60;1.00
5134;DHT22;2585;48.696;10.066;2022-08-24T19:44:25;18.60;1.00
5134;DHT22;2585;48.696;10.066;2022-08-24T19:47:17;18.50;1.50
5134;DHT22;2585;48.696;10.066;2022-08-24T19:49:44;18.40;2.70
5134;DHT22;2585;48.696;10.066;2022-08-24T19:52:11;18.40;4.60
5134;DHT22;2585;48.696;10.066;2022-08-24T19:54:42;18.40;4.60
5134;DHT22;2585;48.696;10.066;2022-08-24T20:00:19;18.20;5.00
5134;DHT22;2585;48.696;10.066;2022-08-24T20:02:48;18.10;7.20
5134;DHT22;2585;48.696;10.066;2022-08-24T20:05:17;18.10;8.60
5134;DHT22;2585;48.696;10.066;2022-08-24T20:07:44;18.00;8.20
5134;DHT22;2585;48.696;10.066;2022-08-24T20:10:13;17.90;10.50
5134;DHT22;2585;48.696;10.066;2022-08-24T20:12:41;17.90;9.60
5134;DHT22;2585;48.696;10.066;2022-08-24T20:15:08;17.80;10.90
5134;DHT22;2585;48.696;10.066;2022-08-24T20:17:35;17.80;14.80
5134;DHT22;2585;48.696;10.066;2022-08-24T20:20:04;17.70;15.40
5134;DHT22;2585;48.696;10.066;2022-08-24T20:22:31;17.70;15.90
5134;DHT22;2585;48.696;10.066;2022-08-24T20:24:58;17.60;16.60
5134;DHT22;2585;48.696;10.066;2022-08-24T20:27:26;17.60;17.80
5134;DHT22;2585;48.696;10.066;2022-08-24T20:29:54;17.50;20.30
5134;DHT22;2585;48.696;10.066;2022-08-24T20:32:21;17.40;20.90
5134;DHT22;2585;48.696;10.066;2022-08-24T20:34:48;17.40;23.60
5134;DHT22;2585;48.696;10.066;2022-08-24T20:37:23;17.40;26.50
5134;DHT22;2585;48.696;10.066;2022-08-24T20:39:54;17.30;25.50
5134;DHT22;2585;48.696;10.066;2022-08-24T20:42:23;17.30;23.70
5134;DHT22;2585;48.696;10.066;2022-08-24T20:44:51;17.20;27.10
5134;DHT22;2585;48.696;10.066;2022-08-24T20:47:19;17.10;33.80
5134;DHT22;2585;48.696;10.066;2022-08-24T20:49:47;17.00;39.00
5134;DHT22;2585;48.696;10.066;2022-08-24T20:52:14;17.00;38.50
5134;DHT22;2585;48.696;10.066;2022-08-24T20:54:41;17.00;43.90
5134;DHT22;2585;48.696;10.066;2022-08-24T20:57:13;16.90;43.40
5134;DHT22;2585;48.696;10.066;2022-08-24T20:59:41;16.90;41.40